sensor_id;sensor_type;location;lat;lon;timestamp;P1;durP1;ratioP1;P2;durP2;ratioP2
5475;SDS011;2760;50.000;9.194;2022-11-30T00:02:14;41.67;;;20.93;;
5475;SDS011;2760;50.000;9.194;2022-11-30T00:04:41;46.47;;;20.83;;
5475;SDS011;2760;50.000;9.194;2022-11-30T00:07:09;54.80;;;22.33;;
5475;SDS011;2760;50.000;9.194;2022-11-30T00:09:37;45.60;;;20.40;;
5475;SDS011;2760;50.000;9.194;2022-11-30T00:12:04;37.97;;;19.43;;
5475;SDS011;2760;50.000;9.194;2022-11-30T00:14:32;43.47;;;21.13;;
5475;SDS011;2760;50.000;9.194;2022-11-30T00:16:59;39.50;;;19.47;;
5475;SDS011;2760;50.000;9.194;2022-11-30T00:19:26;44.27;;;19.70;;
5475;SDS011;2760;50.000;9.194;2022-11-30T00:21:53;48.27;;;20.90;;
5475;SDS011;2760;50.000;9.194;2022-11-30T00:24:19;47.43;;;23.40;;
5475;SDS011;2760;50.000;9.194;2022-11-30T00:26:48;45.27;;;20.33;;
5475;SDS011;2760;50.000;9.194;2022-11-30T00:29:15;49.30;;;20.73;;
5475;SDS011;2760;50.000;9.194;2022-11-30T00:31:42;41.50;;;20.70;;
5475;SDS011;2760;50.000;9.194;2022-11-30T00:34:09;39.57;;;21.37;;
5475;SDS011;2760;50.000;9.194;2022-11-30T00:36:36;45.07;;;21.33;;
5475;SDS011;2760;50.000;9.194;2022-11-30T00:39:03;47.10;;;20.83;;
5475;SDS011;2760;50.000;9.194;2022-11-30T00:41:30;46.37;;;21.03;;
5475;SDS011;2760;50.000;9.194;2022-11-30T00:43:58;42.13;;;20.17;;
5475;SDS011;2760;50.000;9.194;2022-11-30T00:46:25;34.20;;;18.00;;
5475;SDS011;2760;50.000;9.194;2022-11-30T00:48:52;38.37;;;17.53;;
5475;SDS011;2760;50.000;9.194;2022-11-30T00:51:19;36.80;;;17.43;;
5475;SDS011;2760;50.000;9.194;2022-11-30T00:53:46;31.53;;;16.63;;
5475;SDS011;2760;50.000;9.194;2022-11-30T00:56:13;24.33;;;16.40;;
5475;SDS011;2760;50.000;9.194;2022-11-30T00:58:41;31.63;;;16.30;;
5475;SDS011;2760;50.000;9.194;2022-11-30T01:01:09;30.40;;;15.33;;
5475;SDS011;2760;50.000;9.194;2022-11-30T01:03:37;27.73;;;15.73;;
5475;SDS011;2760;50.000;9.194;2022-11-30T01:06:04;29.33;;;14.50;;
5475;SDS011;2760;50.000;9.194;2022-11-30T01:08:33;26.20;;;15.60;;
5475;SDS011;2760;50.000;9.194;2022-11-30T01:11:05;25.90;;;15.57;;
5475;SDS011;2760;50.000;9.194;2022-11-30T01:13:34;24.80;;;14.80;;
5475;SDS011;2760;50.000;9.194;2022-11-30T01:16:01;24.53;;;15.40;;
5475;SDS011;2760;50.000;9.194;2022-11-30T01:18:36;27.93;;;15.83;;
5475;SDS011;2760;50.000;9.194;2022-11-30T01:21:04;30.83;;;15.33;;
5475;SDS011;2760;50.000;9.194;2022-11-30T01:23:32;28.10;;;16.00;;
5475;SDS011;2760;50.000;9.194;2022-11-30T01:25:59;29.43;;;15.67;;
5475;SDS011;2760;50.000;9.194;2022-11-30T01:28:26;24.10;;;14.63;;
5475;SDS011;2760;50.000;9.194;2022-11-30T01:30:57;22.17;;;13.70;;
5475;SDS011;2760;50.000;9.194;2022-11-30T01:33:26;24.33;;;14.90;;
5475;SDS011;2760;50.000;9.194;2022-11-30T01:35:59;24.20;;;14.90;;
5475;SDS011;2760;50.000;9.194;2022-11-30T01:38:29;30.10;;;15.90;;
5475;SDS011;2760;50.000;9.194;2022-11-30T01:40:57;25.10;;;13.83;;
5475;SDS011;2760;50.000;9.194;2022-11-30T01:43:35;21.40;;;13.60;;
5475;SDS011;2760;50.000;9.194;2022-11-30T01:46:04;24.97;;;14.63;;
5475;SDS011;2760;50.000;9.194;2022-11-30T01:48:33;25.60;;;13.90;;
5475;SDS011;2760;50.000;9.194;2022-11-30T01:51:00;23.73;;;14.10;;
5475;SDS011;2760;50.000;9.194;2022-11-30T01:53:27;25.23;;;14.50;;
5475;SDS011;2760;50.000;9.194;2022-11-30T01:55:54;24.47;;;13.67;;
5475;SDS011;2760;50.000;9.194;2022-11-30T01:58:23;25.20;;;13.90;;
5475;SDS011;2760;50.000;9.194;2022-11-30T02:00:52;23.70;;;14.10;;
5475;SDS011;2760;50.000;9.194;2022-11-30T02:03:22;21.70;;;14.00;;
5475;SDS011;2760;50.000;9.194;2022-11-30T02:05:55;25.97;;;14.50;;
5475;SDS011;2760;50.000;9.194;2022-11-30T02:08:23;27.60;;;14.37;;
5475;SDS011;2760;50.000;9.194;2022-11-30T02:10:50;28.10;;;14.90;;
5475;SDS011;2760;50.000;9.194;2022-11-30T02:13:25;25.90;;;14.73;;
5475;SDS011;2760;50.000;9.194;2022-11-30T02:16:05;25.33;;;14.20;;
5475;SDS011;2760;50.000;9.194;2022-11-30T02:18:42;19.30;;;13.53;;
5475;SDS011;2760;50.000;9.194;2022-11-30T02:21:20;27.37;;;14.80;;
5475;SDS011;2760;50.000;9.194;2022-11-30T02:23:59;27.77;;;15.10;;
5475;SDS011;2760;50.000;9.194;2022-11-30T02:26:41;21.50;;;14.10;;
5475;SDS011;2760;50.000;9.194;2022-11-30T02:29:27;25.50;;;15.53;;
5475;SDS011;2760;50.000;9.194;2022-11-30T02:31:57;23.77;;;14.20;;
5475;SDS011;2760;50.000;9.194;2022-11-30T02:34:32;20.10;;;13.53;;
5475;SDS011;2760;50.000;9.194;2022-11-30T02:37:01;23.87;;;14.10;;
5475;SDS011;2760;50.000;9.194;2022-11-30T02:39:30;22.43;;;13.93;;
5475;SDS011;2760;50.000;9.194;2022-11-30T02:41:58;24.10;;;13.07;;
5475;SDS011;2760;50.000;9.194;2022-11-30T02:44:26;23.80;;;13.80;;
5475;SDS011;2760;50.000;9.194;2022-11-30T02:46:59;22.80;;;14.30;;
5475;SDS011;2760;50.000;9.194;2022-11-30T02:49:35;22.90;;;13.37;;
5475;SDS011;2760;50.000;9.194;2022-11-30T02:52:08;24.40;;;13.30;;
5475;SDS011;2760;50.000;9.194;2022-11-30T02:54:36;26.40;;;14.50;;
5475;SDS011;2760;50.000;9.194;2022-11-30T02:57:03;21.73;;;13.97;;
5475;SDS011;2760;50.000;9.194;2022-11-30T02:59:32;24.33;;;13.97;;
5475;SDS011;2760;50.000;9.194;2022-11-30T03:01:59;22.00;;;13.60;;
5475;SDS011;2760;50.000;9.194;2022-11-30T03:04:26;19.60;;;12.67;;
5475;SDS011;2760;50.000;9.194;2022-11-30T03:06:53;18.90;;;13.37;;
5475;SDS011;2760;50.000;9.194;2022-11-30T03:09:20;19.93;;;14.00;;
5475;SDS011;2760;50.000;9.194;2022-11-30T03:11:47;22.00;;;14.27;;
5475;SDS011;2760;50.000;9.194;2022-11-30T03:14:13;21.90;;;13.07;;
5475;SDS011;2760;50.000;9.194;2022-11-30T03:16:42;19.63;;;11.90;;
5475;SDS011;2760;50.000;9.194;2022-11-30T03:19:09;21.37;;;13.50;;
5475;SDS011;2760;50.000;9.194;2022-11-30T03:21:36;18.40;;;11.80;;
5475;SDS011;2760;50.000;9.194;2022-11-30T03:24:03;21.00;;;13.83;;
5475;SDS011;2760;50.000;9.194;2022-11-30T03:26:31;21.67;;;13.17;;
5475;SDS011;2760;50.000;9.194;2022-11-30T03:28:57;17.60;;;12.83;;
5475;SDS011;2760;50.000;9.194;2022-11-30T03:31:25;19.20;;;13.13;;
5475;SDS011;2760;50.000;9.194;2022-11-30T03:33:53;20.57;;;12.57;;
5475;SDS011;2760;50.000;9.194;2022-11-30T03:36:20;21.70;;;13.67;;
5475;SDS011;2760;50.000;9.194;2022-11-30T03:38:47;22.10;;;13.30;;
5475;SDS011;2760;50.000;9.194;2022-11-30T03:41:15;20.37;;;13.67;;
5475;SDS011;2760;50.000;9.194;2022-11-30T03:43:43;19.73;;;13.80;;
5475;SDS011;2760;50.000;9.194;2022-11-30T03:46:10;21.77;;;12.97;;
5475;SDS011;2760;50.000;9.194;2022-11-30T03:48:37;21.27;;;13.13;;
5475;SDS011;2760;50.000;9.194;2022-11-30T03:51:06;20.87;;;12.77;;
5475;SDS011;2760;50.000;9.194;2022-11-30T03:53:35;20.00;;;13.10;;
5475;SDS011;2760;50.000;9.194;2022-11-30T03:56:02;19.50;;;11.70;;
5475;SDS011;2760;50.000;9.194;2022-11-30T03:58:31;17.33;;;12.30;;
5475;SDS011;2760;50.000;9.194;2022-11-30T04:00:59;23.37;;;14.13;;
5475;SDS011;2760;50.000;9.194;2022-11-30T04:03:26;24.70;;;14.60;;
5475;SDS011;2760;50.000;9.194;2022-11-30T04:05:54;19.50;;;13.30;;
5475;SDS011;2760;50.000;9.194;2022-11-30T04:08:22;23.00;;;14.13;;
5475;SDS011;2760;50.000;9.194;2022-11-30T04:10:49;21.80;;;13.73;;
5475;SDS011;2760;50.000;9.194;2022-11-30T04:13:17;19.73;;;13.43;;
5475;SDS011;2760;50.000;9.194;2022-11-30T04:15:44;20.73;;;12.97;;
5475;SDS011;2760;50.000;9.194;2022-11-30T04:18:12;25.63;;;15.33;;
5475;SDS011;2760;50.000;9.194;2022-11-30T04:20:39;26.53;;;14.37;;
5475;SDS011;2760;50.000;9.194;2022-11-30T04:23:07;23.50;;;14.70;;
5475;SDS011;2760;50.000;9.194;2022-11-30T04:25:37;24.30;;;13.97;;
5475;SDS011;2760;50.000;9.194;2022-11-30T04:28:04;23.93;;;14.20;;
5475;SDS011;2760;50.000;9.194;2022-11-30T04:30:32;22.50;;;14.17;;
5475;SDS011;2760;50.000;9.194;2022-11-30T04:32:59;30.47;;;14.63;;
5475;SDS011;2760;50.000;9.194;2022-11-30T04:35:27;25.53;;;16.27;;
5475;SDS011;2760;50.000;9.194;2022-11-30T04:37:54;34.03;;;14.47;;
5475;SDS011;2760;50.000;9.194;2022-11-30T04:40:21;21.97;;;13.63;;
5475;SDS011;2760;50.000;9.194;2022-11-30T04:42:50;23.30;;;14.77;;
5475;SDS011;2760;50.000;9.194;2022-11-30T04:45:17;24.40;;;14.03;;
5475;SDS011;2760;50.000;9.194;2022-11-30T04:47:44;23.57;;;15.50;;
5475;SDS011;2760;50.000;9.194;2022-11-30T04:50:11;23.53;;;13.43;;
5475;SDS011;2760;50.000;9.194;2022-11-30T04:52:38;22.27;;;13.57;;
5475;SDS011;2760;50.000;9.194;2022-11-30T04:55:05;21.20;;;13.50;;
5475;SDS011;2760;50.000;9.194;2022-11-30T04:57:33;22.27;;;15.10;;
5475;SDS011;2760;50.000;9.194;2022-11-30T05:00:01;22.57;;;12.57;;
5475;SDS011;2760;50.000;9.194;2022-11-30T05:02:28;24.80;;;14.30;;
5475;SDS011;2760;50.000;9.194;2022-11-30T05:04:55;26.47;;;14.27;;
5475;SDS011;2760;50.000;9.194;2022-11-30T05:07:22;21.90;;;13.00;;
5475;SDS011;2760;50.000;9.194;2022-11-30T05:09:49;20.17;;;12.33;;
5475;SDS011;2760;50.000;9.194;2022-11-30T05:12:16;18.40;;;12.67;;
5475;SDS011;2760;50.000;9.194;2022-11-30T05:14:43;18.97;;;13.00;;
5475;SDS011;2760;50.000;9.194;2022-11-30T05:17:12;20.77;;;14.03;;
5475;SDS011;2760;50.000;9.194;2022-11-30T05:19:39;23.23;;;13.40;;
5475;SDS011;2760;50.000;9.194;2022-11-30T05:22:07;17.60;;;12.10;;
5475;SDS011;2760;50.000;9.194;2022-11-30T05:24:34;25.53;;;14.13;;
5475;SDS011;2760;50.000;9.194;2022-11-30T05:27:01;20.87;;;14.00;;
5475;SDS011;2760;50.000;9.194;2022-11-30T05:29:28;22.30;;;13.27;;
5475;SDS011;2760;50.000;9.194;2022-11-30T05:31:55;20.90;;;14.60;;
5475;SDS011;2760;50.000;9.194;2022-11-30T05:34:24;30.30;;;16.13;;
5475;SDS011;2760;50.000;9.194;2022-11-30T05:36:54;29.80;;;18.63;;
5475;SDS011;2760;50.000;9.194;2022-11-30T05:39:21;25.63;;;16.93;;
5475;SDS011;2760;50.000;9.194;2022-11-30T05:41:48;24.10;;;14.77;;
5475;SDS011;2760;50.000;9.194;2022-11-30T05:44:15;27.53;;;17.30;;
5475;SDS011;2760;50.000;9.194;2022-11-30T05:46:42;23.80;;;15.40;;
5475;SDS011;2760;50.000;9.194;2022-11-30T05:49:09;23.50;;;14.07;;
5475;SDS011;2760;50.000;9.194;2022-11-30T05:51:38;26.63;;;15.47;;
5475;SDS011;2760;50.000;9.194;2022-11-30T05:54:05;27.03;;;15.10;;
5475;SDS011;2760;50.000;9.194;2022-11-30T05:56:32;25.80;;;15.93;;
5475;SDS011;2760;50.000;9.194;2022-11-30T05:58:59;24.27;;;16.87;;
5475;SDS011;2760;50.000;9.194;2022-11-30T06:01:27;24.37;;;16.90;;
5475;SDS011;2760;50.000;9.194;2022-11-30T06:03:55;28.87;;;15.77;;
5475;SDS011;2760;50.000;9.194;2022-11-30T06:06:22;31.63;;;16.80;;
5475;SDS011;2760;50.000;9.194;2022-11-30T06:08:50;22.83;;;14.43;;
5475;SDS011;2760;50.000;9.194;2022-11-30T06:11:17;25.93;;;17.03;;
5475;SDS011;2760;50.000;9.194;2022-11-30T06:13:44;31.30;;;17.97;;
5475;SDS011;2760;50.000;9.194;2022-11-30T06:16:11;29.90;;;19.33;;
5475;SDS011;2760;50.000;9.194;2022-11-30T06:18:38;33.00;;;17.10;;
5475;SDS011;2760;50.000;9.194;2022-11-30T06:21:06;29.10;;;17.70;;
5475;SDS011;2760;50.000;9.194;2022-11-30T06:23:35;44.37;;;23.83;;
5475;SDS011;2760;50.000;9.194;2022-11-30T06:26:04;28.57;;;16.87;;
5475;SDS011;2760;50.000;9.194;2022-11-30T06:28:33;25.30;;;15.27;;
5475;SDS011;2760;50.000;9.194;2022-11-30T06:31:01;25.63;;;16.77;;
5475;SDS011;2760;50.000;9.194;2022-11-30T06:33:29;28.07;;;16.93;;
5475;SDS011;2760;50.000;9.194;2022-11-30T06:35:57;22.73;;;15.50;;
5475;SDS011;2760;50.000;9.194;2022-11-30T06:38:24;24.00;;;15.70;;
5475;SDS011;2760;50.000;9.194;2022-11-30T06:40:51;22.80;;;14.87;;
5475;SDS011;2760;50.000;9.194;2022-11-30T06:43:20;30.13;;;15.30;;
5475;SDS011;2760;50.000;9.194;2022-11-30T06:45:47;30.27;;;18.20;;
5475;SDS011;2760;50.000;9.194;2022-11-30T06:48:14;28.50;;;17.10;;
5475;SDS011;2760;50.000;9.194;2022-11-30T06:50:41;28.07;;;16.33;;
5475;SDS011;2760;50.000;9.194;2022-11-30T06:53:08;22.53;;;14.93;;
5475;SDS011;2760;50.000;9.194;2022-11-30T06:55:35;27.33;;;15.40;;
5475;SDS011;2760;50.000;9.194;2022-11-30T06:58:06;21.90;;;14.13;;
5475;SDS011;2760;50.000;9.194;2022-11-30T07:00:35;23.50;;;15.77;;
5475;SDS011;2760;50.000;9.194;2022-11-30T07:03:02;22.63;;;14.30;;
5475;SDS011;2760;50.000;9.194;2022-11-30T07:05:31;24.07;;;14.60;;
5475;SDS011;2760;50.000;9.194;2022-11-30T07:08:00;24.60;;;14.53;;
5475;SDS011;2760;50.000;9.194;2022-11-30T07:10:27;30.97;;;16.33;;
5475;SDS011;2760;50.000;9.194;2022-11-30T07:12:55;30.37;;;18.60;;
5475;SDS011;2760;50.000;9.194;2022-11-30T07:15:22;38.20;;;22.60;;
5475;SDS011;2760;50.000;9.194;2022-11-30T07:17:50;28.10;;;17.53;;
5475;SDS011;2760;50.000;9.194;2022-11-30T07:20:17;31.53;;;18.63;;
5475;SDS011;2760;50.000;9.194;2022-11-30T07:22:44;35.03;;;19.03;;
5475;SDS011;2760;50.000;9.194;2022-11-30T07:25:11;28.90;;;18.93;;
5475;SDS011;2760;50.000;9.194;2022-11-30T07:27:55;29.33;;;18.10;;
5475;SDS011;2760;50.000;9.194;2022-11-30T07:30:22;30.37;;;18.50;;
5475;SDS011;2760;50.000;9.194;2022-11-30T07:32:51;32.80;;;18.10;;
5475;SDS011;2760;50.000;9.194;2022-11-30T07:35:18;33.83;;;20.43;;
5475;SDS011;2760;50.000;9.194;2022-11-30T07:37:45;34.63;;;18.13;;
5475;SDS011;2760;50.000;9.194;2022-11-30T07:40:12;28.70;;;17.87;;
5475;SDS011;2760;50.000;9.194;2022-11-30T07:42:39;33.37;;;17.80;;
5475;SDS011;2760;50.000;9.194;2022-11-30T07:45:06;25.80;;;16.57;;
5475;SDS011;2760;50.000;9.194;2022-11-30T07:47:34;23.50;;;15.83;;
5475;SDS011;2760;50.000;9.194;2022-11-30T07:50:02;25.50;;;16.20;;
5475;SDS011;2760;50.000;9.194;2022-11-30T07:52:30;30.17;;;17.90;;
5475;SDS011;2760;50.000;9.194;2022-11-30T07:54:57;24.90;;;16.50;;
5475;SDS011;2760;50.000;9.194;2022-11-30T07:57:24;27.00;;;17.27;;
5475;SDS011;2760;50.000;9.194;2022-11-30T07:59:53;38.07;;;18.90;;
5475;SDS011;2760;50.000;9.194;2022-11-30T08:02:21;29.93;;;18.90;;
5475;SDS011;2760;50.000;9.194;2022-11-30T08:04:48;37.60;;;21.37;;
5475;SDS011;2760;50.000;9.194;2022-11-30T08:07:17;37.70;;;20.57;;
5475;SDS011;2760;50.000;9.194;2022-11-30T08:09:44;34.27;;;20.33;;
5475;SDS011;2760;50.000;9.194;2022-11-30T08:12:13;27.30;;;19.30;;
5475;SDS011;2760;50.000;9.194;2022-11-30T08:14:40;23.13;;;17.17;;
5475;SDS011;2760;50.000;9.194;2022-11-30T08:17:07;27.87;;;17.80;;
5475;SDS011;2760;50.000;9.194;2022-11-30T08:19:34;27.47;;;17.37;;
5475;SDS011;2760;50.000;9.194;2022-11-30T08:22:04;25.47;;;17.47;;
5475;SDS011;2760;50.000;9.194;2022-11-30T08:24:33;32.63;;;20.23;;
5475;SDS011;2760;50.000;9.194;2022-11-30T08:27:00;26.30;;;17.90;;
5475;SDS011;2760;50.000;9.194;2022-11-30T08:29:27;29.60;;;17.90;;
5475;SDS011;2760;50.000;9.194;2022-11-30T08:31:54;26.63;;;17.50;;
5475;SDS011;2760;50.000;9.194;2022-11-30T08:34:21;29.90;;;17.60;;
5475;SDS011;2760;50.000;9.194;2022-11-30T08:36:48;28.93;;;17.20;;
5475;SDS011;2760;50.000;9.194;2022-11-30T08:39:17;28.90;;;17.50;;
5475;SDS011;2760;50.000;9.194;2022-11-30T08:41:46;28.27;;;18.40;;
5475;SDS011;2760;50.000;9.194;2022-11-30T08:44:13;26.80;;;17.13;;
5475;SDS011;2760;50.000;9.194;2022-11-30T08:46:40;30.83;;;18.80;;
5475;SDS011;2760;50.000;9.194;2022-11-30T08:49:07;28.33;;;17.10;;
5475;SDS011;2760;50.000;9.194;2022-11-30T08:51:35;25.33;;;16.90;;
5475;SDS011;2760;50.000;9.194;2022-11-30T08:54:02;27.53;;;16.90;;
5475;SDS011;2760;50.000;9.194;2022-11-30T08:56:29;24.67;;;16.93;;
5475;SDS011;2760;50.000;9.194;2022-11-30T08:58:57;29.53;;;18.13;;
5475;SDS011;2760;50.000;9.194;2022-11-30T09:01:24;26.00;;;16.73;;
5475;SDS011;2760;50.000;9.194;2022-11-30T09:03:53;29.00;;;17.40;;
5475;SDS011;2760;50.000;9.194;2022-11-30T09:06:22;25.17;;;17.03;;
5475;SDS011;2760;50.000;9.194;2022-11-30T09:08:50;26.33;;;16.10;;
5475;SDS011;2760;50.000;9.194;2022-11-30T09:11:21;23.70;;;16.17;;
5475;SDS011;2760;50.000;9.194;2022-11-30T09:13:49;27.83;;;15.93;;
5475;SDS011;2760;50.000;9.194;2022-11-30T09:16:21;24.20;;;15.20;;
5475;SDS011;2760;50.000;9.194;2022-11-30T09:18:48;26.70;;;15.90;;
5475;SDS011;2760;50.000;9.194;2022-11-30T09:21:17;23.70;;;15.10;;
5475;SDS011;2760;50.000;9.194;2022-11-30T09:23:46;22.13;;;14.67;;
5475;SDS011;2760;50.000;9.194;2022-11-30T09:26:14;24.53;;;15.97;;
5475;SDS011;2760;50.000;9.194;2022-11-30T09:28:42;29.30;;;17.57;;
5475;SDS011;2760;50.000;9.194;2022-11-30T09:31:11;23.57;;;15.17;;
5475;SDS011;2760;50.000;9.194;2022-11-30T09:33:41;23.63;;;15.03;;
5475;SDS011;2760;50.000;9.194;2022-11-30T09:36:09;23.70;;;14.70;;
5475;SDS011;2760;50.000;9.194;2022-11-30T09:38:38;25.20;;;16.50;;
5475;SDS011;2760;50.000;9.194;2022-11-30T09:41:12;23.60;;;15.10;;
5475;SDS011;2760;50.000;9.194;2022-11-30T09:44:02;24.50;;;15.17;;
5475;SDS011;2760;50.000;9.194;2022-11-30T09:46:36;26.13;;;15.07;;
5475;SDS011;2760;50.000;9.194;2022-11-30T09:49:08;21.30;;;13.40;;
5475;SDS011;2760;50.000;9.194;2022-11-30T09:51:41;19.37;;;12.57;;
5475;SDS011;2760;50.000;9.194;2022-11-30T09:54:11;21.50;;;13.30;;
5475;SDS011;2760;50.000;9.194;2022-11-30T09:56:41;21.30;;;13.00;;
5475;SDS011;2760;50.000;9.194;2022-11-30T09:59:12;21.60;;;13.30;;
5475;SDS011;2760;50.000;9.194;2022-11-30T10:01:43;21.87;;;14.27;;
5475;SDS011;2760;50.000;9.194;2022-11-30T10:04:17;20.93;;;13.40;;
5475;SDS011;2760;50.000;9.194;2022-11-30T10:06:49;17.60;;;12.83;;
5475;SDS011;2760;50.000;9.194;2022-11-30T10:09:28;21.50;;;13.87;;
5475;SDS011;2760;50.000;9.194;2022-11-30T10:12:04;20.17;;;13.10;;
5475;SDS011;2760;50.000;9.194;2022-11-30T10:14:40;22.27;;;14.63;;
5475;SDS011;2760;50.000;9.194;2022-11-30T10:17:34;18.77;;;12.97;;
5475;SDS011;2760;50.000;9.194;2022-11-30T10:23:05;21.30;;;13.70;;
5475;SDS011;2760;50.000;9.194;2022-11-30T10:25:47;19.50;;;11.60;;
5475;SDS011;2760;50.000;9.194;2022-11-30T10:28:38;18.50;;;11.60;;
5475;SDS011;2760;50.000;9.194;2022-11-30T10:31:15;16.50;;;11.00;;
5475;SDS011;2760;50.000;9.194;2022-11-30T10:33:44;14.80;;;10.20;;
5475;SDS011;2760;50.000;9.194;2022-11-30T10:36:14;16.20;;;9.67;;
5475;SDS011;2760;50.000;9.194;2022-11-30T10:38:51;18.03;;;11.27;;
5475;SDS011;2760;50.000;9.194;2022-11-30T10:41:23;16.17;;;9.63;;
5475;SDS011;2760;50.000;9.194;2022-11-30T10:43:56;14.47;;;10.00;;
5475;SDS011;2760;50.000;9.194;2022-11-30T10:46:28;14.50;;;10.13;;
5475;SDS011;2760;50.000;9.194;2022-11-30T10:49:00;17.00;;;10.90;;
5475;SDS011;2760;50.000;9.194;2022-11-30T10:51:31;14.67;;;9.10;;
5475;SDS011;2760;50.000;9.194;2022-11-30T10:54:01;12.60;;;9.40;;
5475;SDS011;2760;50.000;9.194;2022-11-30T10:56:38;13.50;;;9.47;;
5475;SDS011;2760;50.000;9.194;2022-11-30T10:59:05;13.07;;;9.20;;
5475;SDS011;2760;50.000;9.194;2022-11-30T11:01:37;14.10;;;9.57;;
5475;SDS011;2760;50.000;9.194;2022-11-30T11:04:06;18.77;;;10.80;;
5475;SDS011;2760;50.000;9.194;2022-11-30T11:06:38;11.90;;;7.80;;
5475;SDS011;2760;50.000;9.194;2022-11-30T11:11:57;15.73;;;10.47;;
5475;SDS011;2760;50.000;9.194;2022-11-30T11:14:25;21.10;;;12.10;;
5475;SDS011;2760;50.000;9.194;2022-11-30T11:16:54;16.60;;;9.70;;
5475;SDS011;2760;50.000;9.194;2022-11-30T11:19:24;16.90;;;10.80;;
5475;SDS011;2760;50.000;9.194;2022-11-30T11:21:58;14.97;;;9.70;;
5475;SDS011;2760;50.000;9.194;2022-11-30T11:24:28;12.80;;;8.60;;
5475;SDS011;2760;50.000;9.194;2022-11-30T11:26:55;18.93;;;10.63;;
5475;SDS011;2760;50.000;9.194;2022-11-30T11:29:23;14.03;;;9.50;;
5475;SDS011;2760;50.000;9.194;2022-11-30T11:32:14;28.27;;;14.50;;
5475;SDS011;2760;50.000;9.194;2022-11-30T11:34:44;11.23;;;8.27;;
5475;SDS011;2760;50.000;9.194;2022-11-30T11:37:17;12.00;;;9.00;;
5475;SDS011;2760;50.000;9.194;2022-11-30T11:39:53;15.00;;;9.43;;
5475;SDS011;2760;50.000;9.194;2022-11-30T11:42:22;10.60;;;7.57;;
5475;SDS011;2760;50.000;9.194;2022-11-30T11:44:51;10.33;;;7.90;;
5475;SDS011;2760;50.000;9.194;2022-11-30T11:47:22;11.93;;;8.50;;
5475;SDS011;2760;50.000;9.194;2022-11-30T11:50:06;15.37;;;10.00;;
5475;SDS011;2760;50.000;9.194;2022-11-30T11:55:48;12.40;;;8.30;;
5475;SDS011;2760;50.000;9.194;2022-11-30T11:58:18;13.63;;;8.10;;
5475;SDS011;2760;50.000;9.194;2022-11-30T12:00:52;10.37;;;7.77;;
5475;SDS011;2760;50.000;9.194;2022-11-30T12:03:24;11.70;;;8.43;;
5475;SDS011;2760;50.000;9.194;2022-11-30T12:05:59;12.73;;;7.90;;
5475;SDS011;2760;50.000;9.194;2022-11-30T12:08:32;10.93;;;7.83;;
5475;SDS011;2760;50.000;9.194;2022-11-30T12:11:04;11.77;;;7.63;;
5475;SDS011;2760;50.000;9.194;2022-11-30T12:13:36;13.20;;;8.07;;
5475;SDS011;2760;50.000;9.194;2022-11-30T12:16:07;9.73;;;7.00;;
5475;SDS011;2760;50.000;9.194;2022-11-30T12:18:46;10.93;;;7.00;;
5475;SDS011;2760;50.000;9.194;2022-11-30T12:21:20;9.17;;;6.80;;
5475;SDS011;2760;50.000;9.194;2022-11-30T12:27:11;12.47;;;8.10;;
5475;SDS011;2760;50.000;9.194;2022-11-30T12:29:48;11.07;;;7.93;;
5475;SDS011;2760;50.000;9.194;2022-11-30T12:32:24;11.07;;;7.63;;
5475;SDS011;2760;50.000;9.194;2022-11-30T12:35:07;13.07;;;9.03;;
5475;SDS011;2760;50.000;9.194;2022-11-30T12:37:49;10.50;;;7.30;;
5475;SDS011;2760;50.000;9.194;2022-11-30T12:40:29;17.27;;;10.40;;
5475;SDS011;2760;50.000;9.194;2022-11-30T12:43:04;13.80;;;8.30;;
5475;SDS011;2760;50.000;9.194;2022-11-30T12:45:38;9.87;;;7.57;;
5475;SDS011;2760;50.000;9.194;2022-11-30T12:48:12;12.47;;;9.03;;
5475;SDS011;2760;50.000;9.194;2022-11-30T12:50:51;16.77;;;8.90;;
5475;SDS011;2760;50.000;9.194;2022-11-30T12:53:30;19.10;;;9.30;;
5475;SDS011;2760;50.000;9.194;2022-11-30T12:56:06;14.10;;;8.60;;
5475;SDS011;2760;50.000;9.194;2022-11-30T12:58:44;14.10;;;8.87;;
5475;SDS011;2760;50.000;9.194;2022-11-30T13:01:21;14.67;;;9.80;;
5475;SDS011;2760;50.000;9.194;2022-11-30T13:03:57;12.23;;;8.60;;
5475;SDS011;2760;50.000;9.194;2022-11-30T13:06:30;17.40;;;9.03;;
5475;SDS011;2760;50.000;9.194;2022-11-30T13:09:01;14.17;;;9.20;;
5475;SDS011;2760;50.000;9.194;2022-11-30T13:11:33;10.27;;;7.07;;
5475;SDS011;2760;50.000;9.194;2022-11-30T13:14:03;12.50;;;7.90;;
5475;SDS011;2760;50.000;9.194;2022-11-30T13:16:46;17.07;;;8.70;;
5475;SDS011;2760;50.000;9.194;2022-11-30T13:19:22;11.93;;;8.70;;
5475;SDS011;2760;50.000;9.194;2022-11-30T13:22:05;10.50;;;8.20;;
5475;SDS011;2760;50.000;9.194;2022-11-30T13:24:38;12.40;;;8.00;;
5475;SDS011;2760;50.000;9.194;2022-11-30T13:27:09;13.80;;;10.00;;
5475;SDS011;2760;50.000;9.194;2022-11-30T13:32:32;13.87;;;9.60;;
5475;SDS011;2760;50.000;9.194;2022-11-30T13:38:14;14.20;;;9.10;;
5475;SDS011;2760;50.000;9.194;2022-11-30T13:40:53;12.97;;;9.13;;
5475;SDS011;2760;50.000;9.194;2022-11-30T13:43:23;17.30;;;10.80;;
5475;SDS011;2760;50.000;9.194;2022-11-30T13:46:00;14.43;;;9.53;;
5475;SDS011;2760;50.000;9.194;2022-11-30T13:48:33;16.17;;;9.80;;
5475;SDS011;2760;50.000;9.194;2022-11-30T13:51:03;16.20;;;9.67;;
5475;SDS011;2760;50.000;9.194;2022-11-30T13:53:31;15.93;;;10.20;;
5475;SDS011;2760;50.000;9.194;2022-11-30T13:56:04;19.23;;;9.40;;
5475;SDS011;2760;50.000;9.194;2022-11-30T13:58:34;15.27;;;9.20;;
5475;SDS011;2760;50.000;9.194;2022-11-30T14:01:26;18.87;;;10.40;;
5475;SDS011;2760;50.000;9.194;2022-11-30T14:07:00;15.27;;;9.23;;
5475;SDS011;2760;50.000;9.194;2022-11-30T14:15:49;18.17;;;10.97;;
5475;SDS011;2760;50.000;9.194;2022-11-30T14:18:20;24.60;;;11.93;;
5475;SDS011;2760;50.000;9.194;2022-11-30T14:21:12;21.43;;;11.97;;
5475;SDS011;2760;50.000;9.194;2022-11-30T14:23:53;17.53;;;11.50;;
5475;SDS011;2760;50.000;9.194;2022-11-30T14:26:26;19.43;;;12.13;;
5475;SDS011;2760;50.000;9.194;2022-11-30T14:28:58;22.57;;;12.47;;
5475;SDS011;2760;50.000;9.194;2022-11-30T14:31:32;24.83;;;13.43;;
5475;SDS011;2760;50.000;9.194;2022-11-30T14:34:04;24.80;;;12.93;;
5475;SDS011;2760;50.000;9.194;2022-11-30T14:36:37;24.37;;;13.60;;
5475;SDS011;2760;50.000;9.194;2022-11-30T14:39:21;28.03;;;13.73;;
5475;SDS011;2760;50.000;9.194;2022-11-30T14:41:51;34.13;;;17.57;;
5475;SDS011;2760;50.000;9.194;2022-11-30T14:44:18;31.27;;;18.20;;
5475;SDS011;2760;50.000;9.194;2022-11-30T14:46:46;31.80;;;17.30;;
5475;SDS011;2760;50.000;9.194;2022-11-30T14:49:14;30.40;;;16.23;;
5475;SDS011;2760;50.000;9.194;2022-11-30T14:51:43;38.03;;;18.10;;
5475;SDS011;2760;50.000;9.194;2022-11-30T14:54:25;32.13;;;17.70;;
5475;SDS011;2760;50.000;9.194;2022-11-30T14:57:18;25.30;;;14.43;;
5475;SDS011;2760;50.000;9.194;2022-11-30T14:59:52;29.00;;;15.60;;
5475;SDS011;2760;50.000;9.194;2022-11-30T15:02:27;24.40;;;14.30;;
5475;SDS011;2760;50.000;9.194;2022-11-30T15:04:58;25.30;;;14.03;;
5475;SDS011;2760;50.000;9.194;2022-11-30T15:07:26;27.07;;;14.63;;
5475;SDS011;2760;50.000;9.194;2022-11-30T15:09:56;26.90;;;15.23;;
5475;SDS011;2760;50.000;9.194;2022-11-30T15:12:27;20.77;;;12.30;;
5475;SDS011;2760;50.000;9.194;2022-11-30T15:15:06;28.80;;;15.43;;
5475;SDS011;2760;50.000;9.194;2022-11-30T15:17:48;22.60;;;13.50;;
5475;SDS011;2760;50.000;9.194;2022-11-30T15:20:19;23.60;;;12.67;;
5475;SDS011;2760;50.000;9.194;2022-11-30T15:22:51;22.50;;;12.60;;
5475;SDS011;2760;50.000;9.194;2022-11-30T15:25:19;16.97;;;10.93;;
5475;SDS011;2760;50.000;9.194;2022-11-30T15:27:49;20.10;;;12.47;;
5475;SDS011;2760;50.000;9.194;2022-11-30T15:30:16;24.53;;;15.23;;
5475;SDS011;2760;50.000;9.194;2022-11-30T15:32:44;28.07;;;15.07;;
5475;SDS011;2760;50.000;9.194;2022-11-30T15:35:18;21.00;;;13.93;;
5475;SDS011;2760;50.000;9.194;2022-11-30T15:37:47;25.20;;;15.17;;